Time;durP1;ratioP1;P1;durP2;ratioP2;P2;SDS_P1;SDS_P2;PMS_P1;PMS_P2;Temp;Humidity;BMP_temperature;BMP_pressure;BME280_temperature;BME280_humidity;BME280_pressure;Samples;Min_cycle;Max_cycle;Signal;HPM_P1;HPM_P2
2024/04/09 00:01:44;;;;;;;3.80;3.20;;;;;;;;;;5277855;27;20002;-67
2024/04/09 00:04:09;;;;;;;5.07;2.80;;;;;;;;;;5278027;27;20002;-67
2024/04/09 00:06:35;;;;;;;3.00;2.80;;;;;;;;;;5279638;27;20069;-68
2024/04/09 00:09:00;;;;;;;4.07;2.72;;;;;;;;;;5279734;27;19999;-68
2024/04/09 00:11:25;;;;;;;3.78;2.40;;;;;;;;;;5278855;27;20452;-68
2024/04/09 00:13:51;;;;;;;2.90;2.70;;;;;;;;;;5279363;27;20515;-68
2024/04/09 00:16:22;;;;;;;2.67;2.40;;;;;;;;;;5279461;27;20026;-67
2024/04/09 00:18:48;;;;;;;2.95;2.75;;;;;;;;;;5279552;27;20013;-67
2024/04/09 00:21:13;;;;;;;4.07;2.45;;;;;;;;;;5279355;27;20010;-67
2024/04/09 00:23:39;;;;;;;2.92;2.72;;;;;;;;;;5279308;27;20005;-67
2024/04/09 00:26:05;;;;;;;2.00;1.90;;;;;;;;;;5277804;27;20006;-63
2024/04/09 00:28:30;;;;;;;2.65;2.45;;;;;;;;;;5279378;27;19994;-63
2024/04/09 00:30:56;;;;;;;3.22;2.35;;;;;;;;;;5277725;27;20076;-64
2024/04/09 00:33:23;;;;;;;2.72;2.30;;;;;;;;;;5279301;27;20531;-64
2024/04/09 00:35:51;;;;;;;3.22;2.40;;;;;;;;;;5277346;27;20080;-63
2024/04/09 00:38:19;;;;;;;2.90;2.50;;;;;;;;;;5277025;27;20006;-67
2024/04/09 00:40:45;;;;;;;3.60;2.45;;;;;;;;;;5275648;27;20038;-67
2024/04/09 00:43:12;;;;;;;3.58;2.20;;;;;;;;;;5275783;27;20002;-67
2024/04/09 00:45:38;;;;;;;2.38;1.90;;;;;;;;;;5274496;27;20470;-67
2024/04/09 00:48:04;;;;;;;2.75;1.83;;;;;;;;;;5274554;27;19999;-67
2024/04/09 00:50:29;;;;;;;2.53;2.25;;;;;;;;;;5276240;27;20001;-66
2024/04/09 00:52:55;;;;;;;3.00;2.10;;;;;;;;;;5274540;27;20009;-65
2024/04/09 00:55:25;;;;;;;2.47;1.88;;;;;;;;;;5276950;27;20086;-65
2024/04/09 00:57:52;;;;;;;2.28;2.17;;;;;;;;;;5275852;27;20010;-65
2024/04/09 01:00:18;;;;;;;3.08;2.00;;;;;;;;;;5275994;27;20009;-66
2024/04/09 01:02:48;;;;;;;2.42;1.75;;;;;;;;;;5275762;27;20002;-66
2024/04/09 01:05:14;;;;;;;1.98;1.88;;;;;;;;;;5275612;27;19998;-67
2024/04/09 01:07:39;;;;;;;3.13;2.20;;;;;;;;;;5275840;27;20009;-68
2024/04/09 01:10:05;;;;;;;2.58;2.30;;;;;;;;;;5275980;27;19994;-68
2024/04/09 01:12:30;;;;;;;2.20;2.00;;;;;;;;;;5278982;27;19994;-66
2024/04/09 01:14:56;;;;;;;2.22;2.05;;;;;;;;;;5277257;27;20391;-66
2024/04/09 01:17:22;;;;;;;2.50;2.08;;;;;;;;;;5279042;27;20013;-66
2024/04/09 01:19:47;;;;;;;4.38;2.38;;;;;;;;;;5277020;27;20330;-66
2024/04/09 01:22:14;;;;;;;2.38;2.17;;;;;;;;;;5278758;27;20005;-66
2024/04/09 01:24:39;;;;;;;2.38;2.28;;;;;;;;;;5278988;27;20026;-66
2024/04/09 01:27:05;;;;;;;3.13;2.20;;;;;;;;;;5279112;27;20030;-68
2024/04/09 01:29:31;;;;;;;2.85;2.08;;;;;;;;;;5278794;27;20515;-68
2024/04/09 01:31:57;;;;;;;2.25;2.05;;;;;;;;;;5278793;27;20003;-68
2024/04/09 01:34:22;;;;;;;2.28;2.13;;;;;;;;;;5276835;27;20072;-67
2024/04/09 01:36:49;;;;;;;2.38;2.17;;;;;;;;;;5278518;27;20002;-67
2024/04/09 01:39:14;;;;;;;3.90;2.28;;;;;;;;;;5278218;27;20005;-62
2024/04/09 01:41:41;;;;;;;2.20;2.10;;;;;;;;;;5278563;27;20002;-67
2024/04/09 01:44:07;;;;;;;2.05;1.95;;;;;;;;;;5278330;27;20026;-62
2024/04/09 01:46:32;;;;;;;2.42;2.25;;;;;;;;;;5278387;27;20002;-62
2024/04/09 01:48:59;;;;;;;2.55;2.25;;;;;;;;;;5278289;27;19995;-62
2024/04/09 01:51:24;;;;;;;3.25;2.10;;;;;;;;;;5278221;27;20013;-67
2024/04/09 01:53:50;;;;;;;2.30;2.10;;;;;;;;;;5278207;27;19998;-68
2024/04/09 01:56:16;;;;;;;2.50;2.30;;;;;;;;;;5278066;27;20326;-67
2024/04/09 01:58:42;;;;;;;2.42;2.22;;;;;;;;;;5278158;27;20002;-67
2024/04/09 02:01:09;;;;;;;3.53;2.45;;;;;;;;;;5278171;27;19998;-67
2024/04/09 02:03:35;;;;;;;2.92;2.25;;;;;;;;;;5278056;27;20452;-67
2024/04/09 02:06:02;;;;;;;2.80;1.90;;;;;;;;;;5276595;27;20076;-67
2024/04/09 02:08:27;;;;;;;2.55;2.05;;;;;;;;;;5278191;27;20003;-67
2024/04/09 02:10:53;;;;;;;2.72;2.20;;;;;;;;;;5278085;27;20008;-67
2024/04/09 02:13:19;;;;;;;2.20;2.03;;;;;;;;;;5278046;27;20499;-65
2024/04/09 02:15:45;;;;;;;2.35;2.22;;;;;;;;;;5277843;27;19998;-66
2024/04/09 02:18:10;;;;;;;1.88;1.77;;;;;;;;;;5278012;27;20009;-66
2024/04/09 02:20:38;;;;;;;2.85;1.98;;;;;;;;;;5277961;27;20006;-66
2024/04/09 02:23:04;;;;;;;2.50;2.03;;;;;;;;;;5276182;27;19995;-66
2024/04/09 02:25:30;;;;;;;2.83;2.30;;;;;;;;;;5276171;27;20038;-66
2024/04/09 02:27:56;;;;;;;1.98;1.80;;;;;;;;;;5277678;27;20010;-61
2024/04/09 02:30:21;;;;;;;2.40;2.15;;;;;;;;;;5277872;27;19994;-60
2024/04/09 02:32:47;;;;;;;3.20;2.33;;;;;;;;;;5277755;27;20006;-60
2024/04/09 02:35:12;;;;;;;2.25;2.05;;;;;;;;;;5276916;27;20009;-61
2024/04/09 02:37:39;;;;;;;2.13;2.00;;;;;;;;;;5277533;27;20009;-60
2024/04/09 02:40:04;;;;;;;3.53;2.05;;;;;;;;;;5275858;27;20451;-61
2024/04/09 02:42:31;;;;;;;1.88;1.65;;;;;;;;;;5277312;27;19998;-60
2024/04/09 02:44:56;;;;;;;2.58;1.63;;;;;;;;;;5277448;27;20026;-60
2024/04/09 02:47:22;;;;;;;2.75;2.08;;;;;;;;;;5277485;27;20092;-61
2024/04/09 02:49:47;;;;;;;2.65;2.10;;;;;;;;;;5277458;27;20050;-61
2024/04/09 02:52:13;;;;;;;2.30;2.13;;;;;;;;;;5277454;27;20338;-61
2024/04/09 02:54:41;;;;;;;2.40;2.20;;;;;;;;;;5277363;27;20002;-61
2024/04/09 02:57:07;;;;;;;3.90;2.15;;;;;;;;;;5277285;27;20014;-60
2024/04/09 02:59:33;;;;;;;2.50;2.28;;;;;;;;;;5277239;27;20358;-61
2024/04/09 03:01:58;;;;;;;3.08;2.35;;;;;;;;;;5277403;27;20013;-61
2024/04/09 03:04:24;;;;;;;3.47;2.40;;;;;;;;;;5277083;27;20464;-60
2024/04/09 03:06:52;;;;;;;3.40;3.00;;;;;;;;;;5277201;27;20326;-66
2024/04/09 03:09:17;;;;;;;4.40;2.80;;;;;;;;;;5277026;27;20755;-68
2024/04/09 03:11:43;;;;;;;5.22;2.60;;;;;;;;;;5277377;27;19994;-65
2024/04/09 03:14:11;;;;;;;5.07;2.90;;;;;;;;;;5277223;27;19994;-65
2024/04/09 03:16:37;;;;;;;3.80;2.55;;;;;;;;;;5277282;27;20328;-65
2024/04/09 03:19:03;;;;;;;3.28;2.15;;;;;;;;;;5275595;27;19998;-66
2024/04/09 03:21:29;;;;;;;2.75;2.33;;;;;;;;;;5275398;27;20014;-65
2024/04/09 03:24:00;;;;;;;5.68;2.60;;;;;;;;;;5276887;27;19994;-65
2024/04/09 03:26:26;;;;;;;4.15;2.05;;;;;;;;;;5277061;27;20437;-65
2024/04/09 03:28:51;;;;;;;2.42;2.22;;;;;;;;;;5277131;27;20004;-65
2024/04/09 03:31:17;;;;;;;5.05;2.78;;;;;;;;;;5276723;27;20392;-65
2024/04/09 03:33:42;;;;;;;4.30;2.67;;;;;;;;;;5276274;27;20068;-64
2024/04/09 03:36:08;;;;;;;4.50;2.40;;;;;;;;;;5274108;27;20003;-64
2024/04/09 03:38:33;;;;;;;4.07;2.70;;;;;;;;;;5271789;27;20077;-64
2024/04/09 03:41:00;;;;;;;3.10;2.42;;;;;;;;;;5274146;27;20444;-65
2024/04/09 03:43:26;;;;;;;3.75;2.67;;;;;;;;;;5276710;27;20014;-60
2024/04/09 03:46:04;;;;;;;5.07;2.70;;;;;;;;;;5274946;27;19998;-60
2024/04/09 03:48:29;;;;;;;4.60;3.60;;;;;;;;;;5276274;27;19998;-60
2024/04/09 03:50:55;;;;;;;9.30;3.40;;;;;;;;;;5276710;27;20013;-60
2024/04/09 03:53:20;;;;;;;8.80;3.03;;;;;;;;;;5276721;27;20441;-60
2024/04/09 03:55:55;;;;;;;4.72;2.97;;;;;;;;;;5276083;27;20015;-60
2024/04/09 03:58:20;;;;;;;3.20;2.60;;;;;;;;;;5274874;27;20336;-60
2024/04/09 04:00:56;;;;;;;8.20;3.38;;;;;;;;;;5275290;27;19998;-66
2024/04/09 04:03:22;;;;;;;6.68;3.95;;;;;;;;;;5278123;27;20014;-66
2024/04/09 04:05:54;;;;;;;5.15;3.25;;;;;;;;;;5276678;27;19994;-66
2024/04/09 04:08:23;;;;;;;6.80;3.65;;;;;;;;;;5299643;27;20001;-65
2024/04/09 04:10:52;;;;;;;5.80;3.53;;;;;;;;;;5314040;26;20075;-65
2024/04/09 04:13:18;;;;;;;6.88;3.70;;;;;;;;;;5314118;26;19998;-64
2024/04/09 04:15:44;;;;;;;5.57;3.55;;;;;;;;;;5314035;26;20012;-65
2024/04/09 04:18:10;;;;;;;7.65;3.58;;;;;;;;;;5313972;26;20080;-61
2024/04/09 04:20:35;;;;;;;7.95;3.53;;;;;;;;;;5312642;27;20005;-63
2024/04/09 04:23:01;;;;;;;5.25;3.30;;;;;;;;;;5311911;27;20436;-67
2024/04/09 04:25:26;;;;;;;5.50;3.22;;;;;;;;;;5314036;26;20004;-66
2024/04/09 04:27:52;;;;;;;6.85;3.67;;;;;;;;;;5312025;27;20390;-66
2024/04/09 04:30:17;;;;;;;8.25;3.72;;;;;;;;;;5313987;26;20005;-64
2024/04/09 04:32:43;;;;;;;9.20;3.83;;;;;;;;;;5313983;26;20225;-65
2024/04/09 04:35:10;;;;;;;9.30;3.30;;;;;;;;;;5313553;26;20016;-65
2024/04/09 04:37:35;;;;;;;7.38;3.25;;;;;;;;;;5313405;26;20002;-65
2024/04/09 04:40:01;;;;;;;6.00;3.38;;;;;;;;;;5313524;26;20004;-62
2024/04/09 04:42:26;;;;;;;8.90;3.80;;;;;;;;;;5313280;26;20013;-63
2024/04/09 04:44:52;;;;;;;6.85;4.38;;;;;;;;;;5313365;26;20013;-63
2024/04/09 04:47:17;;;;;;;6.15;3.63;;;;;;;;;;5311733;27;19998;-63
2024/04/09 04:49:43;;;;;;;5.15;3.20;;;;;;;;;;5313701;26;20012;-63
2024/04/09 04:52:09;;;;;;;5.45;2.80;;;;;;;;;;5313421;26;20025;-63
2024/04/09 04:54:35;;;;;;;7.93;3.83;;;;;;;;;;5311641;27;20017;-63
2024/04/09 04:57:01;;;;;;;12.00;4.10;;;;;;;;;;5313735;27;19994;-63
2024/04/09 04:59:26;;;;;;;10.25;4.30;;;;;;;;;;5312822;26;20008;-63
2024/04/09 05:01:52;;;;;;;6.57;3.33;;;;;;;;;;5312850;26;19994;-63
2024/04/09 05:04:17;;;;;;;6.90;3.15;;;;;;;;;;5313072;26;20032;-63
2024/04/09 05:06:42;;;;;;;6.80;3.40;;;;;;;;;;5313114;26;20331;-63
2024/04/09 05:09:08;;;;;;;7.85;3.25;;;;;;;;;;5311446;27;20001;-63
2024/04/09 05:11:33;;;;;;;7.60;3.35;;;;;;;;;;5313006;26;19994;-63
2024/04/09 05:13:59;;;;;;;12.20;6.25;;;;;;;;;;5313207;26;19997;-63
2024/04/09 05:16:24;;;;;;;10.82;6.40;;;;;;;;;;5312934;26;20008;-63
2024/04/09 05:18:49;;;;;;;9.60;5.45;;;;;;;;;;5312500;26;20436;-63
2024/04/09 05:21:15;;;;;;;7.40;4.22;;;;;;;;;;5311241;26;19998;-63
2024/04/09 05:23:41;;;;;;;3.15;2.83;;;;;;;;;;5309821;26;20002;-63
2024/04/09 05:26:07;;;;;;;4.78;2.47;;;;;;;;;;5310963;26;20026;-63
2024/04/09 05:28:32;;;;;;;3.25;2.17;;;;;;;;;;5311055;26;20048;-63
2024/04/09 05:30:58;;;;;;;3.88;2.58;;;;;;;;;;5311049;26;19994;-63
2024/04/09 05:33:23;;;;;;;3.80;2.60;;;;;;;;;;5310019;26;19994;-63
2024/04/09 05:35:50;;;;;;;5.00;2.20;;;;;;;;;;5309663;26;20424;-63
2024/04/09 05:38:15;;;;;;;4.18;2.00;;;;;;;;;;5310951;26;20016;-63
2024/04/09 05:40:41;;;;;;;3.95;2.00;;;;;;;;;;5311077;26;20002;-63
2024/04/09 05:43:06;;;;;;;4.30;2.10;;;;;;;;;;5310851;26;20001;-63
2024/04/09 05:45:32;;;;;;;3.63;3.17;;;;;;;;;;5311747;26;20068;-63
2024/04/09 05:47:58;;;;;;;7.47;3.40;;;;;;;;;;5312156;26;19997;-63
2024/04/09 05:50:23;;;;;;;5.60;3.72;;;;;;;;;;5312747;26;20004;-63
2024/04/09 05:52:49;;;;;;;5.72;2.38;;;;;;;;;;5312299;26;20029;-63
2024/04/09 05:55:14;;;;;;;4.47;2.05;;;;;;;;;;5312432;26;20008;-63
2024/04/09 05:57:40;;;;;;;2.13;2.00;;;;;;;;;;5312515;26;19994;-63
2024/04/09 06:00:07;;;;;;;2.17;1.83;;;;;;;;;;5312531;26;19997;-63
2024/04/09 06:02:37;;;;;;;2.85;1.90;;;;;;;;;;5312437;26;20009;-63
2024/04/09 06:05:03;;;;;;;3.40;2.00;;;;;;;;;;5310698;27;20001;-63
2024/04/09 06:07:30;;;;;;;5.32;2.00;;;;;;;;;;5312090;26;20081;-63
2024/04/09 06:09:56;;;;;;;7.40;2.22;;;;;;;;;;5311179;26;19997;-63
2024/04/09 06:12:21;;;;;;;2.50;1.75;;;;;;;;;;5312580;26;20450;-63
2024/04/09 06:14:47;;;;;;;3.63;1.83;;;;;;;;;;5310627;27;20008;-63
2024/04/09 06:17:13;;;;;;;5.53;1.70;;;;;;;;;;5312492;26;20040;-63
2024/04/09 06:19:38;;;;;;;4.43;1.88;;;;;;;;;;5312487;26;20013;-63
2024/04/09 06:22:04;;;;;;;3.75;1.98;;;;;;;;;;5312323;26;20001;-63
2024/04/09 06:24:29;;;;;;;3.08;2.22;;;;;;;;;;5312236;26;19993;-63
2024/04/09 06:26:55;;;;;;;5.45;2.10;;;;;;;;;;5310661;27;20332;-63
2024/04/09 06:29:21;;;;;;;3.60;2.10;;;;;;;;;;5312374;26;20446;-63
2024/04/09 06:31:46;;;;;;;7.32;2.10;;;;;;;;;;5312224;26;20002;-63
2024/04/09 06:34:12;;;;;;;7.47;3.50;;;;;;;;;;5312301;26;20004;-63
2024/04/09 06:36:37;;;;;;;35.35;19.33;;;;;;;;;;5312190;26;20009;-63
2024/04/09 06:39:05;;;;;;;34.67;18.38;;;;;;;;;;5312289;26;20179;-63
2024/04/09 06:41:30;;;;;;;18.23;10.25;;;;;;;;;;5311980;26;20012;-63
2024/04/09 06:43:55;;;;;;;5.90;4.50;;;;;;;;;;5312145;26;20001;-63
2024/04/09 06:46:21;;;;;;;3.78;2.45;;;;;;;;;;5312155;26;20001;-63
2024/04/09 06:48:46;;;;;;;4.18;1.75;;;;;;;;;;5311910;26;19997;-63
2024/04/09 06:51:12;;;;;;;2.20;1.77;;;;;;;;;;5311969;26;20004;-63
2024/04/09 06:53:37;;;;;;;3.30;1.80;;;;;;;;;;5312011;26;20025;-63
2024/04/09 06:56:03;;;;;;;3.47;1.55;;;;;;;;;;5312112;26;20001;-63
2024/04/09 06:58:28;;;;;;;1.83;1.35;;;;;;;;;;5311558;26;20013;-63
2024/04/09 07:00:54;;;;;;;3.20;1.60;;;;;;;;;;5311645;26;19994;-63
2024/04/09 07:03:20;;;;;;;5.32;1.83;;;;;;;;;;5309696;27;20001;-63
2024/04/09 07:05:45;;;;;;;5.85;1.75;;;;;;;;;;5311400;26;20008;-62
2024/04/09 07:08:12;;;;;;;2.63;1.80;;;;;;;;;;5298906;26;20006;-63
2024/04/09 07:10:37;;;;;;;2.95;1.42;;;;;;;;;;5277217;27;20002;-63
2024/04/09 07:13:03;;;;;;;2.67;1.42;;;;;;;;;;5277194;27;20005;-63
2024/04/09 07:15:29;;;;;;;2.58;1.17;;;;;;;;;;5276962;27;20009;-63
2024/04/09 07:17:54;;;;;;;3.67;1.50;;;;;;;;;;5277112;27;20337;-63
2024/04/09 07:20:19;;;;;;;2.72;2.53;;;;;;;;;;5277107;27;20006;-63
2024/04/09 07:22:45;;;;;;;3.78;1.92;;;;;;;;;;5279794;27;20017;-63
2024/04/09 07:25:12;;;;;;;1.83;1.20;;;;;;;;;;5278450;27;20002;-63
2024/04/09 07:27:39;;;;;;;1.77;1.10;;;;;;;;;;5278753;27;19999;-63
2024/04/09 07:30:05;;;;;;;1.67;1.38;;;;;;;;;;5280307;27;20364;-63
2024/04/09 07:32:31;;;;;;;2.80;1.40;;;;;;;;;;5280133;27;19999;-63
2024/04/09 07:34:56;;;;;;;44.75;3.42;;;;;;;;;;5280302;27;20008;-63
2024/04/09 07:37:21;;;;;;;3.10;1.15;;;;;;;;;;5280187;27;20460;-63
2024/04/09 07:39:47;;;;;;;5.20;1.17;;;;;;;;;;5280109;27;19998;-63
2024/04/09 07:42:12;;;;;;;1.15;1.00;;;;;;;;;;5278392;27;20013;-63
2024/04/09 07:44:37;;;;;;;1.27;1.02;;;;;;;;;;5280104;27;19994;-62
2024/04/09 07:47:03;;;;;;;1.50;0.88;;;;;;;;;;5280230;27;19995;-63
2024/04/09 07:49:28;;;;;;;3.20;1.10;;;;;;;;;;5279964;27;19994;-63
2024/04/09 07:51:54;;;;;;;1.15;1.05;;;;;;;;;;5280140;27;20072;-63
2024/04/09 07:54:19;;;;;;;2.58;1.08;;;;;;;;;;5278269;27;20003;-63
2024/04/09 07:56:44;;;;;;;2.00;1.10;;;;;;;;;;5279970;27;19995;-63
2024/04/09 07:59:10;;;;;;;1.10;1.00;;;;;;;;;;5279772;27;20002;-63
2024/04/09 08:01:35;;;;;;;2.22;0.90;;;;;;;;;;5279925;27;20006;-63
2024/04/09 08:04:01;;;;;;;2.30;1.00;;;;;;;;;;5279792;27;20084;-63
2024/04/09 08:06:28;;;;;;;1.10;1.00;;;;;;;;;;5279866;27;19999;-63
2024/04/09 08:08:55;;;;;;;0.80;0.80;;;;;;;;;;5279807;27;20354;-63
2024/04/09 08:11:20;;;;;;;0.90;0.90;;;;;;;;;;5280055;27;20076;-57
2024/04/09 08:13:45;;;;;;;2.35;0.90;;;;;;;;;;5280083;27;20006;-57
2024/04/09 08:16:12;;;;;;;1.23;1.10;;;;;;;;;;5279924;27;20009;-57
2024/04/09 08:18:37;;;;;;;1.35;1.00;;;;;;;;;;5278170;27;20073;-62
2024/04/09 08:23:49;;;;;;;1.38;1.00;;;;;;;;;;5318252;21;20020;-57
2024/04/09 08:26:16;;;;;;;0.93;0.85;;;;;;;;;;5331739;21;20003;-57
2024/04/09 08:28:41;;;;;;;3.10;1.10;;;;;;;;;;5306007;21;20024;-62
2024/04/09 08:31:06;;;;;;;2.72;1.27;;;;;;;;;;5300364;21;20015;-62
2024/04/09 08:33:32;;;;;;;1.00;0.73;;;;;;;;;;5289833;21;20025;-58
2024/04/09 08:35:57;;;;;;;0.70;0.70;;;;;;;;;;5313035;27;20005;-57
2024/04/09 08:38:23;;;;;;;1.88;0.88;;;;;;;;;;5376629;21;20016;-57
2024/04/09 08:40:48;;;;;;;1.05;0.90;;;;;;;;;;5383338;26;20000;-62
2024/04/09 08:43:16;;;;;;;1.10;0.77;;;;;;;;;;5383147;26;20000;-63
2024/04/09 08:45:42;;;;;;;3.63;1.10;;;;;;;;;;5383165;26;20007;-63
2024/04/09 08:48:10;;;;;;;1.10;1.00;;;;;;;;;;5382999;26;20008;-63
2024/04/09 08:50:37;;;;;;;1.25;1.00;;;;;;;;;;5383093;26;20000;-63
2024/04/09 08:53:02;;;;;;;1.95;1.00;;;;;;;;;;5383047;26;20011;-63
2024/04/09 08:55:30;;;;;;;1.02;0.98;;;;;;;;;;5382890;26;20334;-63
2024/04/09 08:57:55;;;;;;;2.72;1.20;;;;;;;;;;5383079;26;20011;-63
2024/04/09 09:00:21;;;;;;;2.13;1.10;;;;;;;;;;5382970;26;20004;-63
2024/04/09 09:02:47;;;;;;;2.55;0.90;;;;;;;;;;5382618;26;20000;-63
2024/04/09 09:05:16;;;;;;;1.15;0.93;;;;;;;;;;5382994;26;20000;-63
2024/04/09 09:07:41;;;;;;;2.15;0.98;;;;;;;;;;5382892;26;20048;-63
2024/04/09 09:10:08;;;;;;;1.85;1.17;;;;;;;;;;5382719;26;20012;-63
2024/04/09 09:12:33;;;;;;;1.90;0.95;;;;;;;;;;5382820;26;20000;-63
2024/04/09 09:15:00;;;;;;;0.80;0.80;;;;;;;;;;5351790;26;20000;-63
2024/04/09 09:17:26;;;;;;;2.35;0.90;;;;;;;;;;5382978;26;19996;-57
2024/04/09 09:20:08;;;;;;;0.80;0.80;;;;;;;;;;5351594;26;20449;-57
2024/04/09 09:22:36;;;;;;;3.75;1.20;;;;;;;;;;5382640;26;19999;-57
2024/04/09 09:25:01;;;;;;;1.63;1.00;;;;;;;;;;5351853;26;20011;-57
2024/04/09 09:27:27;;;;;;;1.20;1.10;;;;;;;;;;5382369;26;19996;-57
2024/04/09 09:29:55;;;;;;;1.58;0.85;;;;;;;;;;5382542;26;20314;-57
2024/04/09 09:32:24;;;;;;;1.00;0.90;;;;;;;;;;5382517;26;20015;-57
2024/04/09 09:34:50;;;;;;;3.78;0.90;;;;;;;;;;5382327;26;20036;-57
2024/04/09 09:37:16;;;;;;;2.60;1.00;;;;;;;;;;5382423;26;20000;-57
2024/04/09 09:39:43;;;;;;;3.13;1.10;;;;;;;;;;5382471;26;20445;-57
2024/04/09 09:42:11;;;;;;;0.88;0.80;;;;;;;;;;5351300;26;20319;-57
2024/04/09 09:44:39;;;;;;;1.98;1.00;;;;;;;;;;5380653;26;20023;-57
2024/04/09 09:47:05;;;;;;;2.72;1.35;;;;;;;;;;5382278;26;20000;-57
2024/04/09 09:49:30;;;;;;;2.90;1.13;;;;;;;;;;5382121;26;20461;-57
2024/04/09 09:51:57;;;;;;;1.05;0.95;;;;;;;;;;5351428;26;19997;-57
2024/04/09 09:54:23;;;;;;;1.95;0.90;;;;;;;;;;5382038;26;20011;-57
2024/04/09 09:56:50;;;;;;;1.48;1.05;;;;;;;;;;5382273;26;19996;-57
2024/04/09 09:59:20;;;;;;;2.53;1.15;;;;;;;;;;5382167;26;20032;-57
2024/04/09 10:01:48;;;;;;;1.63;1.00;;;;;;;;;;5382103;26;20028;-57
2024/04/09 10:04:22;;;;;;;2.55;1.10;;;;;;;;;;5381958;26;20003;-57
2024/04/09 10:07:01;;;;;;;1.98;1.50;;;;;;;;;;5382049;26;20485;-57
2024/04/09 10:09:49;;;;;;;141.98;5.40;;;;;;;;;;5381985;26;19992;-57
2024/04/09 10:12:20;;;;;;;2.95;1.27;;;;;;;;;;5381993;26;19996;-57
2024/04/09 10:14:51;;;;;;;1.08;1.08;;;;;;;;;;5381886;26;20442;-57
2024/04/09 10:17:16;;;;;;;1.98;1.02;;;;;;;;;;5351314;26;20072;-57
2024/04/09 10:19:42;;;;;;;1.60;1.17;;;;;;;;;;5381829;26;19992;-57
2024/04/09 10:22:07;;;;;;;48.42;2.70;;;;;;;;;;5381394;26;19992;-57
2024/04/09 10:24:36;;;;;;;2.08;1.98;;;;;;;;;;5381683;26;19992;-57
2024/04/09 10:27:01;;;;;;;2.80;1.40;;;;;;;;;;5350523;26;19996;-57
2024/04/09 10:29:29;;;;;;;3.25;1.30;;;;;;;;;;5381727;26;20448;-57
2024/04/09 10:31:55;;;;;;;3.67;1.17;;;;;;;;;;5381926;26;20011;-57
2024/04/09 10:34:24;;;;;;;3.83;1.10;;;;;;;;;;5381637;26;19996;-57
2024/04/09 10:36:54;;;;;;;2.13;1.10;;;;;;;;;;5381449;26;20000;-58
2024/04/09 10:39:20;;;;;;;2.20;1.50;;;;;;;;;;5382089;26;20066;-57
2024/04/09 10:41:56;;;;;;;1.90;1.02;;;;;;;;;;5381789;26;20036;-57
2024/04/09 10:44:22;;;;;;;2.63;1.20;;;;;;;;;;5381932;26;20008;-57
2024/04/09 10:46:47;;;;;;;1.67;1.23;;;;;;;;;;5350938;26;20361;-57
2024/04/09 10:49:13;;;;;;;2.28;2.08;;;;;;;;;;5350902;26;20000;-57
2024/04/09 10:51:39;;;;;;;3.35;1.33;;;;;;;;;;5381713;26;20008;-57
2024/04/09 10:54:05;;;;;;;1.20;1.05;;;;;;;;;;5381638;26;20008;-57
2024/04/09 10:56:35;;;;;;;1.63;1.20;;;;;;;;;;5382747;26;20012;-57
2024/04/09 10:59:00;;;;;;;1.58;1.30;;;;;;;;;;5353879;26;20334;-57
2024/04/09 11:01:26;;;;;;;1.20;0.90;;;;;;;;;;5384619;26;20008;-57
2024/04/09 11:03:51;;;;;;;3.85;1.33;;;;;;;;;;5384344;26;19996;-57
2024/04/09 11:06:16;;;;;;;2.75;2.20;;;;;;;;;;5384546;26;20073;-57
2024/04/09 11:08:42;;;;;;;7.28;3.85;;;;;;;;;;5384556;26;20003;-57
2024/04/09 11:11:08;;;;;;;1.80;1.25;;;;;;;;;;5384304;26;19996;-57
2024/04/09 11:13:33;;;;;;;2.70;1.60;;;;;;;;;;5384436;26;20073;-57
2024/04/09 11:16:01;;;;;;;2.90;1.20;;;;;;;;;;5353586;26;20458;-58
2024/04/09 11:18:27;;;;;;;1.10;1.00;;;;;;;;;;5384369;26;20007;-57
2024/04/09 11:20:56;;;;;;;1.58;1.00;;;;;;;;;;5384329;26;20066;-57
2024/04/09 11:23:22;;;;;;;2.03;1.33;;;;;;;;;;5384307;26;20011;-57
2024/04/09 11:25:48;;;;;;;2.28;1.35;;;;;;;;;;5384078;26;20036;-57
2024/04/09 11:28:14;;;;;;;3.67;1.15;;;;;;;;;;5384325;26;20000;-57
2024/04/09 11:30:46;;;;;;;3.13;1.02;;;;;;;;;;5384207;26;20066;-57
2024/04/09 11:33:12;;;;;;;4.70;1.40;;;;;;;;;;5384030;26;20423;-57
2024/04/09 11:35:37;;;;;;;1.23;0.77;;;;;;;;;;5384178;26;20316;-57
2024/04/09 11:38:03;;;;;;;3.53;1.30;;;;;;;;;;5384029;26;19999;-57
2024/04/09 11:40:29;;;;;;;2.03;0.98;;;;;;;;;;5384227;26;20448;-57
2024/04/09 11:42:55;;;;;;;2.28;1.45;;;;;;;;;;5384566;26;20418;-57
2024/04/09 11:45:30;;;;;;;2.15;1.25;;;;;;;;;;5384427;26;19996;-57
2024/04/09 11:47:56;;;;;;;1.35;1.25;;;;;;;;;;5384319;26;20000;-57
2024/04/09 11:50:22;;;;;;;3.70;1.25;;;;;;;;;;5384289;26;20007;-57
2024/04/09 11:52:48;;;;;;;2.10;1.13;;;;;;;;;;5383981;26;20024;-57
2024/04/09 11:55:13;;;;;;;4.57;1.40;;;;;;;;;;5384218;26;20323;-57
2024/04/09 11:57:43;;;;;;;2.80;1.60;;;;;;;;;;5384129;26;19996;-57
2024/04/09 12:00:12;;;;;;;3.00;1.23;;;;;;;;;;5383656;26;19996;-57
2024/04/09 12:02:43;;;;;;;4.55;1.80;;;;;;;;;;5383691;26;19996;-57
2024/04/09 12:05:08;;;;;;;;;;;;;;;;;;5384129;26;20008;-57
2024/04/09 12:07:33;;;;;;;2.90;1.55;;;;;;;;;;5382598;26;20020;-57
2024/04/09 12:09:58;;;;;;;1.60;1.20;;;;;;;;;;5383694;26;20430;-57
2024/04/09 12:12:24;;;;;;;2.47;1.33;;;;;;;;;;5383639;26;20445;-57
2024/04/09 12:14:49;;;;;;;2.95;1.20;;;;;;;;;;5383154;26;19996;-57
2024/04/09 12:17:14;;;;;;;5.38;1.25;;;;;;;;;;5383860;26;20008;-57
2024/04/09 12:19:40;;;;;;;2.05;1.10;;;;;;;;;;5386226;26;20077;-64
2024/04/09 12:22:06;;;;;;;2.15;1.20;;;;;;;;;;5403632;26;20003;-64
2024/04/09 12:24:32;;;;;;;2.63;1.00;;;;;;;;;;5408533;26;20412;-63
2024/04/09 12:26:57;;;;;;;2.55;1.30;;;;;;;;;;5418001;26;20003;-64
2024/04/09 12:29:24;;;;;;;2.83;1.05;;;;;;;;;;5386711;26;19999;-63
2024/04/09 12:31:50;;;;;;;3.60;1.42;;;;;;;;;;5418399;26;20331;-63
2024/04/09 12:34:19;;;;;;;4.80;1.45;;;;;;;;;;5418654;26;19996;-63
2024/04/09 12:36:44;;;;;;;1.50;1.30;;;;;;;;;;5418340;26;20011;-64
2024/04/09 12:39:10;;;;;;;3.30;2.28;;;;;;;;;;5387080;26;19999;-58
2024/04/09 12:41:35;;;;;;;2.75;1.70;;;;;;;;;;5418915;26;20002;-58
2024/04/09 12:44:01;;;;;;;1.60;1.50;;;;;;;;;;5418666;26;20007;-58
2024/04/09 12:46:27;;;;;;;2.00;0.98;;;;;;;;;;5418431;26;19999;-63
2024/04/09 12:48:52;;;;;;;3.70;1.45;;;;;;;;;;5418315;26;19999;-64
2024/04/09 12:51:18;;;;;;;6.05;1.60;;;;;;;;;;5418649;26;20065;-65
2024/04/09 12:53:43;;;;;;;4.15;1.77;;;;;;;;;;5418562;26;20310;-67
2024/04/09 12:56:09;;;;;;;3.85;1.40;;;;;;;;;;5418288;26;20065;-65
2024/04/09 12:58:34;;;;;;;1.90;1.27;;;;;;;;;;5416017;26;20007;-65
2024/04/09 13:01:00;;;;;;;6.00;3.55;;;;;;;;;;5416142;26;19996;-65
2024/04/09 13:03:28;;;;;;;1.38;1.27;;;;;;;;;;5385921;26;20007;-65
2024/04/09 13:05:54;;;;;;;5.68;1.58;;;;;;;;;;5384353;26;20068;-65
2024/04/09 13:08:19;;;;;;;2.40;1.30;;;;;;;;;;5418613;26;20421;-65
2024/04/09 13:10:45;;;;;;;2.78;1.70;;;;;;;;;;5417972;26;19992;-66
2024/04/09 13:13:12;;;;;;;2.67;1.40;;;;;;;;;;5417652;26;20011;-65
2024/04/09 13:15:38;;;;;;;3.40;1.30;;;;;;;;;;5417797;26;20491;-65
2024/04/09 13:18:03;;;;;;;3.75;1.15;;;;;;;;;;5418045;26;20004;-64
2024/04/09 13:20:29;;;;;;;4.03;1.77;;;;;;;;;;5417737;26;19992;-65
2024/04/09 13:22:54;;;;;;;4.03;1.30;;;;;;;;;;5418161;26;20068;-65
2024/04/09 13:25:19;;;;;;;2.33;1.27;;;;;;;;;;5418173;26;19992;-65
2024/04/09 13:27:45;;;;;;;6.00;1.58;;;;;;;;;;5418124;26;20038;-64
2024/04/09 13:30:12;;;;;;;2.15;1.70;;;;;;;;;;5417819;26;20002;-58
2024/04/09 13:32:41;;;;;;;3.25;1.33;;;;;;;;;;5358122;26;20530;-58
2024/04/09 13:35:06;;;;;;;4.22;1.10;;;;;;;;;;5380896;26;20015;-58
2024/04/09 13:37:33;;;;;;;3.25;1.23;;;;;;;;;;5381558;26;20004;-58
2024/04/09 13:39:59;;;;;;;2.25;1.27;;;;;;;;;;5382394;26;20008;-58
2024/04/09 13:42:24;;;;;;;0.60;0.60;;;;;;;;;;5382018;26;20000;-58
2024/04/09 13:44:49;;;;;;;4.93;1.80;;;;;;;;;;5381870;26;20320;-58
2024/04/09 13:47:15;;;;;;;1.52;1.20;;;;;;;;;;5382028;26;20341;-59
2024/04/09 13:49:40;;;;;;;7.80;1.50;;;;;;;;;;5381808;26;20012;-58
2024/04/09 13:52:07;;;;;;;3.38;1.27;;;;;;;;;;5382229;26;20003;-59
2024/04/09 13:54:36;;;;;;;2.25;1.20;;;;;;;;;;5382217;26;20011;-59
2024/04/09 13:57:02;;;;;;;5.35;1.25;;;;;;;;;;5382256;26;20069;-59
2024/04/09 13:59:29;;;;;;;2.20;1.55;;;;;;;;;;5381961;26;19993;-59
2024/04/09 14:01:54;;;;;;;2.55;1.30;;;;;;;;;;5382083;26;20004;-59
2024/04/09 14:04:19;;;;;;;3.58;1.60;;;;;;;;;;5351428;26;19996;-59
2024/04/09 14:06:45;;;;;;;5.53;1.58;;;;;;;;;;5382051;26;19996;-59
2024/04/09 14:09:10;;;;;;;2.47;1.17;;;;;;;;;;5381858;26;19996;-59
2024/04/09 14:11:36;;;;;;;1.77;1.25;;;;;;;;;;5381969;26;20004;-59
2024/04/09 14:14:01;;;;;;;5.25;1.77;;;;;;;;;;5381660;26;20003;-59
2024/04/09 14:16:27;;;;;;;4.00;1.25;;;;;;;;;;5381891;26;20471;-58
2024/04/09 14:18:53;;;;;;;2.70;1.45;;;;;;;;;;5381892;26;20319;-59
2024/04/09 14:21:19;;;;;;;3.30;1.35;;;;;;;;;;5381877;26;20338;-59
2024/04/09 14:23:44;;;;;;;5.05;1.70;;;;;;;;;;5350897;26;20074;-59
2024/04/09 14:26:10;;;;;;;3.60;1.33;;;;;;;;;;5351114;26;20000;-59
2024/04/09 14:28:39;;;;;;;5.53;1.52;;;;;;;;;;5381736;26;19996;-59
2024/04/09 14:31:04;;;;;;;4.50;1.52;;;;;;;;;;5380723;26;20020;-59
2024/04/09 14:33:30;;;;;;;3.30;1.30;;;;;;;;;;5381432;26;19992;-59
2024/04/09 14:35:56;;;;;;;2.42;1.27;;;;;;;;;;5381564;26;20508;-59
2024/04/09 14:38:21;;;;;;;2.28;1.10;;;;;;;;;;5381521;26;20330;-67
2024/04/09 14:40:47;;;;;;;5.97;1.20;;;;;;;;;;5381603;26;19992;-58